Meriden, Wyoming
Current Conditions -  °F | °C
As of 10:55 AM on Friday 28 Nov 2014 (Local Time) from K82V Reporting Station
Clear Clear  
Wind Chill: 63°   Ceiling: Unl
Heat Index: 63°   Visibility: 10mi
Dew Point: 14°   Wind: 21mph
Humidity: 15%   Direction: 250°WSW
Pressure: 29.88"   Gusts: 25mph
Location:  41.54°N, 104.32°W
Report Text: K82V 281755Z AUTO 25018G22KT 10SM CLR 17/M10 A2988 RMK AO2
Loading
Personal Weather Stations






























Interactive Weather Map New forecast layout! Learn more

10-Day Weather Forecast

Advertisements
Track Severe Weather on mobile